Palacios, TX

1:50 PM CDT on July 29, 2015 (GMT -0500)
Palacios Municipal | | Change Station
CLOSE
Current Station
Airport
Location: Palacios,
Elevation: 16 ft
Nearby Weather Stations

Elev 16 ft 28.73 °N, 96.25 °W | Updated 57 minutes ago

Clear
Clear
90 °F
Feels Like 102 °F
N
12
Wind Variable Wind from SSW

Today
High -- | Low -- °F
--% Chance of Precip.
Yesterday
High -- | Low -- °F
Precip. -- in
6:44 AM 8:17 PM
Waxing Gibbous, 96% visible
Pressure 30.06 in
Visibility 10.0 miles
Clouds Clear
Heat Index 102 °F
Dew Point 77 °F
Humidity 65%
Rainfall 0.00 in
Snow Depth Not available.
UV 12 out of 12
Pollen 3.90 out of 12
Air Quality Not available.
Flu Activity Not available.
METAR KPSX 291753Z AUTO 20010KT 10SM CLR 32/25 A3006 RMK AO2 SLP178 T03220250 10328 20278 51004

More Conditions Fewer Conditions

Pressure 30.06 in
Visibility 10.0 miles
Clouds Clear
Heat Index 102 °F
Dew Point 77 °F
Humidity 65%
Rainfall 0.00 in
Snow Depth Not available.
UV 12 out of 12
Pollen 3.90 out of 12
Air Quality Not available.
Flu Activity Not available.
METAR KPSX 291753Z AUTO 20010KT 10SM CLR 32/25 A3006 RMK AO2 SLP178 T03220250 10328 20278 51004

More Conditions Fewer Conditions

10-Day Weather Forecast

×

Almanac

Astronomy

Jul. 29, 2015 Rise Set
Actual Time
Civil Twilight
Nautical Twilight
Astronomical Twilight
Moon
Length of Visible Light
Length of Day
Tomorrow will be .
, % of the Moon is Illuminated

Today's Extremes

State Highs State Lows

Community

WunderPhotos

Upload Photos

1,842,149 photos uploaded!

WunderBlogs® & News

Nearby

Air Quality

  Air Quality AQ Index Pollutant
Not available.

Snow Depth

Station Depth Elevation

Earthquake Activity

City Distance Mag. Time & Date
Minimum magnitude displayed is 2.5.

Coastal Water Temperatures

Place Temperature

Stations

Nearby Weather Stations

Station Location Temp. Windchill Dew Point Humidity Wind Precip. Elev Updated Type